Time;durP1;ratioP1;P1;durP2;ratioP2;P2;SDS_P1;SDS_P2;PMS_P1;PMS_P2;Temp;Humidity;BMP_temperature;BMP_pressure;BME280_temperature;BME280_humidity;BME280_pressure;Samples;Min_cycle;Max_cycle;Signal;HPM_P1;HPM_P2
2022/10/21 00:00:13;;;;;;;2.63;1.83;;;21.80;99.90;;;;;;5044166;28;20531;-46
2022/10/21 00:02:40;;;;;;;2.00;1.90;;;21.80;99.90;;;;;;5052154;28;20813;-44
2022/10/21 00:05:07;;;;;;;1.83;1.73;;;21.80;99.90;;;;;;5050582;28;20472;-45
2022/10/21 00:07:34;;;;;;;1.50;1.40;;;21.80;99.90;;;;;;5052023;28;20453;-45
2022/10/21 00:10:03;;;;;;;1.33;1.23;;;21.80;99.90;;;;;;5048671;28;20469;-47
2022/10/21 00:12:32;;;;;;;1.50;1.40;;;21.80;99.90;;;;;;5046421;28;20446;-45
2022/10/21 00:14:58;;;;;;;1.90;1.80;;;21.80;99.90;;;;;;5042507;28;20443;-44
2022/10/21 00:17:25;;;;;;;2.00;1.80;;;21.70;99.90;;;;;;5040337;28;20492;-46
2022/10/21 00:19:52;;;;;;;1.97;1.57;;;21.70;99.90;;;;;;5050789;28;20477;-46
2022/10/21 00:22:19;;;;;;;1.90;1.80;;;21.70;99.90;;;;;;5045105;28;20445;-44
2022/10/21 00:24:45;;;;;;;1.97;1.77;;;21.70;99.90;;;;;;5049415;28;20824;-46
2022/10/21 00:27:13;;;;;;;1.73;1.63;;;21.70;99.90;;;;;;5052256;28;20450;-45
2022/10/21 00:29:40;;;;;;;1.53;1.43;;;21.70;99.90;;;;;;5038689;28;20458;-46
2022/10/21 00:32:07;;;;;;;1.60;1.50;;;21.60;99.90;;;;;;5041709;28;20518;-44
2022/10/21 00:34:33;;;;;;;1.70;1.60;;;21.60;99.90;;;;;;5052732;28;20442;-46
2022/10/21 00:37:00;;;;;;;1.60;1.50;;;21.60;99.90;;;;;;5043300;28;20523;-47
2022/10/21 00:39:27;;;;;;;1.53;1.43;;;21.60;99.90;;;;;;5048597;28;20477;-45
2022/10/21 00:41:53;;;;;;;1.73;1.53;;;21.60;99.90;;;;;;5045639;28;20474;-45
2022/10/21 00:44:21;;;;;;;1.53;1.43;;;21.60;99.90;;;;;;5048835;28;20507;-43
2022/10/21 00:46:51;;;;;;;1.70;1.40;;;21.50;99.90;;;;;;5036962;28;20821;-45
2022/10/21 00:49:24;;;;;;;1.53;1.43;;;21.50;99.90;;;;;;5050406;28;20820;-47
2022/10/21 00:51:55;;;;;;;2.17;1.47;;;21.50;99.90;;;;;;5043899;28;20437;-47
2022/10/21 00:54:24;;;;;;;1.97;1.30;;;21.50;99.90;;;;;;5045478;28;20453;-44
2022/10/21 00:56:54;;;;;;;1.60;1.50;;;21.50;99.90;;;;;;5045667;28;20507;-44
2022/10/21 00:59:23;;;;;;;2.00;1.90;;;21.50;99.90;;;;;;5052655;28;20849;-46
2022/10/21 01:01:50;;;;;;;1.83;1.60;;;21.50;99.90;;;;;;5050188;28;20937;-46
2022/10/21 01:04:17;;;;;;;1.97;1.77;;;21.50;99.90;;;;;;5049652;28;20461;-42
2022/10/21 01:06:44;;;;;;;1.70;1.60;;;21.40;99.90;;;;;;5044662;28;20442;-46
2022/10/21 01:09:13;;;;;;;1.37;1.27;;;21.40;99.90;;;;;;5049440;28;20469;-42
2022/10/21 01:11:43;;;;;;;1.60;1.50;;;21.40;99.90;;;;;;5050338;28;20441;-47
2022/10/21 01:14:32;;;;;;;1.80;1.63;;;21.40;99.90;;;;;;5043237;28;20882;-44
2022/10/21 01:17:07;;;;;;;1.43;1.33;;;21.40;99.90;;;;;;5034329;28;20554;-45
2022/10/21 01:19:57;;;;;;;2.00;1.80;;;21.40;99.90;;;;;;5042703;28;20571;-46
2022/10/21 01:22:42;;;;;;;1.80;1.70;;;21.40;99.90;;;;;;5051243;28;20461;-44
2022/10/21 01:25:35;;;;;;;2.30;1.50;;;21.40;99.90;;;;;;5046297;28;20508;-48
2022/10/21 01:28:14;;;;;;;1.70;1.50;;;21.30;99.90;;;;;;5043867;28;20435;-46
2022/10/21 01:30:44;;;;;;;1.57;1.47;;;21.30;99.90;;;;;;5042642;28;20469;-44
2022/10/21 01:33:39;;;;;;;2.33;2.00;;;21.30;99.90;;;;;;5046443;28;20957;-44
2022/10/21 01:36:15;;;;;;;1.40;1.30;;;21.30;99.90;;;;;;5047597;28;20805;-43
2022/10/21 01:38:45;;;;;;;1.70;1.60;;;21.30;99.90;;;;;;5031593;28;20466;-43
2022/10/21 01:41:18;;;;;;;2.17;1.88;;;21.30;99.90;;;;;;5046584;28;20485;-45
2022/10/21 01:43:50;;;;;;;1.63;1.40;;;21.30;99.90;;;;;;5043470;28;20192;-45
2022/10/21 01:46:26;;;;;;;2.00;1.90;;;21.20;99.90;;;;;;5042280;28;20457;-43
2022/10/21 01:49:00;;;;;;;1.43;1.30;;;21.20;99.90;;;;;;5041441;28;20462;-46
2022/10/21 01:51:28;;;;;;;2.65;1.80;;;21.30;99.90;;;;;;5050791;28;20441;-44
2022/10/21 01:54:00;;;;;;;2.10;1.77;;;21.20;99.90;;;;;;5042945;28;20653;-45
2022/10/21 01:56:29;;;;;;;1.73;1.63;;;21.20;99.90;;;;;;5050311;28;20438;-43
2022/10/21 01:58:56;;;;;;;1.50;1.33;;;21.20;99.90;;;;;;5049550;28;20948;-46
2022/10/21 02:01:25;;;;;;;1.43;1.33;;;21.20;99.90;;;;;;5040813;28;20486;-46
2022/10/21 02:03:56;;;;;;;2.05;1.85;;;21.20;99.90;;;;;;5048422;28;20515;-47
2022/10/21 02:06:24;;;;;;;1.52;1.42;;;21.10;99.90;;;;;;5045497;28;20195;-44
2022/10/21 02:08:51;;;;;;;1.77;1.67;;;21.10;99.90;;;;;;5049952;28;20572;-44
2022/10/21 02:11:18;;;;;;;1.67;1.57;;;21.10;99.90;;;;;;5049247;28;20461;-45
2022/10/21 02:13:50;;;;;;;1.93;1.53;;;21.10;99.90;;;;;;5051782;28;20448;-46
2022/10/21 02:16:21;;;;;;;1.30;1.20;;;21.10;99.90;;;;;;5050609;28;20461;-45
2022/10/21 02:18:49;;;;;;;1.70;1.60;;;21.10;99.90;;;;;;5050246;28;20194;-45
2022/10/21 02:21:19;;;;;;;1.40;1.30;;;21.00;99.90;;;;;;5041140;28;20220;-48
2022/10/21 02:23:52;;;;;;;1.60;1.50;;;21.00;99.90;;;;;;5050281;28;20562;-46
2022/10/21 02:26:19;;;;;;;1.63;1.52;;;21.00;99.90;;;;;;5046068;28;20470;-42
2022/10/21 02:28:47;;;;;;;1.63;1.53;;;21.00;99.90;;;;;;5048080;28;20199;-44
2022/10/21 02:31:32;;;;;;;2.13;1.43;;;21.00;99.90;;;;;;5041271;28;20459;-44
2022/10/21 02:34:09;;;;;;;1.48;1.38;;;21.00;99.90;;;;;;5044967;28;20458;-46
2022/10/21 02:36:48;;;;;;;2.10;1.63;;;21.00;99.90;;;;;;5048626;28;20755;-44
2022/10/21 02:39:19;;;;;;;1.70;1.60;;;21.00;99.90;;;;;;5048029;28;20203;-45
2022/10/21 02:41:48;;;;;;;1.80;1.70;;;21.00;99.90;;;;;;5044236;28;20442;-43
2022/10/21 02:44:15;;;;;;;1.40;1.30;;;20.90;99.90;;;;;;5049047;28;20205;-45
2022/10/21 02:46:44;;;;;;;1.77;1.67;;;20.90;99.90;;;;;;5049817;28;20194;-46
2022/10/21 02:49:12;;;;;;;1.40;1.30;;;20.90;99.90;;;;;;5047151;28;20462;-46
2022/10/21 02:51:39;;;;;;;1.85;1.65;;;20.90;99.90;;;;;;5045159;28;20198;-48
2022/10/21 02:54:06;;;;;;;1.83;1.73;;;20.90;99.90;;;;;;5049965;28;20199;-42
2022/10/21 02:56:34;;;;;;;1.85;1.52;;;20.90;99.90;;;;;;5041301;28;20187;-44
2022/10/21 02:59:01;;;;;;;1.50;1.40;;;20.90;99.90;;;;;;5050750;28;20187;-46
2022/10/21 03:01:27;;;;;;;1.60;1.48;;;20.80;99.90;;;;;;5048444;28;20222;-47
2022/10/21 03:03:54;;;;;;;1.45;1.35;;;20.80;99.90;;;;;;5048871;28;20192;-51
2022/10/21 03:06:22;;;;;;;1.58;1.48;;;20.80;99.90;;;;;;5040688;28;20214;-45
2022/10/21 03:08:49;;;;;;;1.73;1.30;;;20.80;99.90;;;;;;5047805;28;20581;-46
2022/10/21 03:11:15;;;;;;;1.50;1.40;;;20.80;99.90;;;;;;5040923;28;20210;-46
2022/10/21 03:13:42;;;;;;;3.97;1.90;;;20.80;99.90;;;;;;5050875;28;20248;-46
2022/10/21 03:16:09;;;;;;;1.30;1.20;;;20.70;99.90;;;;;;5054199;28;20261;-43
2022/10/21 03:18:35;;;;;;;1.52;1.35;;;20.70;99.90;;;;;;5052750;28;20203;-42
2022/10/21 03:21:02;;;;;;;1.63;1.52;;;20.70;99.90;;;;;;5052986;28;20218;-47
2022/10/21 03:23:30;;;;;;;1.60;1.30;;;20.70;99.90;;;;;;5053699;28;20191;-45
2022/10/21 03:25:57;;;;;;;1.35;1.25;;;20.70;99.90;;;;;;5049713;28;20194;-46
2022/10/21 03:28:23;;;;;;;3.60;1.88;;;20.70;99.90;;;;;;5044948;28;20241;-43
2022/10/21 03:30:50;;;;;;;1.50;1.40;;;20.70;99.90;;;;;;5048345;28;20199;-45
2022/10/21 03:33:17;;;;;;;2.40;1.45;;;20.60;99.90;;;;;;5052866;28;20203;-46
2022/10/21 03:35:43;;;;;;;1.60;1.50;;;20.60;99.90;;;;;;5046992;28;20195;-46
2022/10/21 03:38:10;;;;;;;2.35;1.75;;;20.60;99.90;;;;;;5053878;28;20195;-47
2022/10/21 03:40:38;;;;;;;1.77;1.60;;;20.60;99.90;;;;;;5048994;28;20226;-46
2022/10/21 03:43:05;;;;;;;1.50;1.40;;;20.60;99.90;;;;;;5042399;28;20602;-46
2022/10/21 03:45:31;;;;;;;1.50;1.38;;;20.90;99.90;;;;;;5034117;28;20192;-47
2022/10/21 03:47:58;;;;;;;1.53;1.43;;;21.20;99.90;;;;;;5038674;28;20200;-45
2022/10/21 03:50:25;;;;;;;1.60;1.50;;;21.40;99.90;;;;;;5049358;28;20883;-46
2022/10/21 03:52:52;;;;;;;1.55;1.45;;;21.60;99.90;;;;;;5044977;28;20461;-46
2022/10/21 03:55:19;;;;;;;1.30;1.20;;;21.70;99.90;;;;;;5046471;28;20539;-47
2022/10/21 03:57:47;;;;;;;2.23;1.50;;;21.70;99.90;;;;;;5048650;28;20544;-44
2022/10/21 04:00:15;;;;;;;1.97;1.50;;;21.90;99.90;;;;;;5053363;28;20477;-43
2022/10/21 04:02:42;;;;;;;1.57;1.47;;;21.90;99.90;;;;;;5053921;28;20449;-46
2022/10/21 04:05:09;;;;;;;2.00;1.50;;;21.90;99.90;;;;;;5045986;28;20496;-43
2022/10/21 04:07:36;;;;;;;1.40;1.30;;;22.00;99.90;;;;;;5045122;28;20449;-43
2022/10/21 04:10:04;;;;;;;1.60;1.50;;;22.10;99.90;;;;;;5048748;28;20515;-46
2022/10/21 04:12:30;;;;;;;1.60;1.47;;;22.10;99.90;;;;;;5045547;28;20461;-44
2022/10/21 04:14:58;;;;;;;1.70;1.30;;;22.20;99.90;;;;;;5052248;28;20863;-44
2022/10/21 04:17:25;;;;;;;1.20;1.00;;;22.10;99.90;;;;;;5052202;28;20485;-47
2022/10/21 04:19:52;;;;;;;1.40;1.30;;;22.10;99.90;;;;;;5049532;28;20848;-48
2022/10/21 04:22:18;;;;;;;1.40;1.30;;;22.10;99.90;;;;;;5043058;28;20465;-43
2022/10/21 04:24:45;;;;;;;2.10;1.53;;;22.00;99.90;;;;;;5042828;28;20465;-44
2022/10/21 04:27:12;;;;;;;1.80;1.57;;;21.90;99.90;;;;;;5049848;28;20454;-47
2022/10/21 04:29:38;;;;;;;1.60;1.50;;;21.90;99.90;;;;;;5045519;28;20825;-44
2022/10/21 04:32:06;;;;;;;1.20;1.10;;;21.90;99.90;;;;;;5052243;28;20441;-46
2022/10/21 04:34:33;;;;;;;1.20;1.10;;;21.90;99.90;;;;;;5042205;28;20967;-46
2022/10/21 04:37:00;;;;;;;1.83;1.33;;;21.80;99.90;;;;;;5046584;28;20447;-46
2022/10/21 04:39:27;;;;;;;1.20;1.07;;;21.80;99.90;;;;;;5038583;28;20457;-44
2022/10/21 04:41:54;;;;;;;1.60;1.23;;;21.80;99.90;;;;;;5048127;28;20486;-47
2022/10/21 04:44:21;;;;;;;1.63;1.37;;;21.80;99.90;;;;;;5044633;28;20488;-44
2022/10/21 04:46:48;;;;;;;1.60;1.50;;;21.70;99.90;;;;;;5039348;28;20450;-45
2022/10/21 04:49:16;;;;;;;1.53;1.43;;;21.70;99.90;;;;;;5039987;28;20450;-47
2022/10/21 04:51:43;;;;;;;1.33;1.23;;;21.70;99.90;;;;;;5051545;28;20442;-44
2022/10/21 04:54:10;;;;;;;1.40;1.30;;;21.70;99.90;;;;;;5047985;28;20844;-46
2022/10/21 04:56:36;;;;;;;1.30;1.20;;;21.70;99.90;;;;;;5037630;28;20449;-46
2022/10/21 04:59:03;;;;;;;1.70;1.60;;;21.70;99.90;;;;;;5049811;28;20453;-44
2022/10/21 05:01:30;;;;;;;1.57;1.37;;;21.70;99.90;;;;;;5050796;28;20480;-44
2022/10/21 05:03:56;;;;;;;1.10;1.00;;;21.70;99.90;;;;;;5049478;28;20457;-49
2022/10/21 05:06:24;;;;;;;1.33;1.23;;;21.70;99.90;;;;;;5051553;28;20468;-43
2022/10/21 05:08:51;;;;;;;1.37;1.27;;;21.70;99.90;;;;;;5050256;28;20445;-44
2022/10/21 05:11:18;;;;;;;1.63;1.50;;;21.70;99.90;;;;;;5049535;28;20464;-47
2022/10/21 05:13:45;;;;;;;1.37;1.17;;;21.70;99.90;;;;;;5051734;28;20805;-46
2022/10/21 05:16:12;;;;;;;1.30;1.20;;;21.70;99.90;;;;;;5052437;28;20473;-46
2022/10/21 05:18:39;;;;;;;1.40;1.30;;;21.70;99.90;;;;;;5047795;28;20450;-46
2022/10/21 05:21:06;;;;;;;1.20;1.10;;;21.80;99.90;;;;;;5046726;28;20497;-45
2022/10/21 05:23:34;;;;;;;1.40;1.30;;;21.80;99.90;;;;;;5035327;28;21018;-44
2022/10/21 05:26:00;;;;;;;1.50;1.40;;;21.90;99.90;;;;;;5048671;28;20875;-47
2022/10/21 05:28:27;;;;;;;1.53;1.43;;;21.90;99.90;;;;;;5045301;28;20459;-46
2022/10/21 05:30:54;;;;;;;1.57;1.20;;;21.90;99.90;;;;;;5047375;28;20464;-43
2022/10/21 05:33:20;;;;;;;1.20;1.10;;;22.00;99.90;;;;;;5045442;28;20458;-46
2022/10/21 05:35:55;;;;;;;1.77;1.50;;;21.90;99.90;;;;;;5050411;28;20937;-45
2022/10/21 05:38:22;;;;;;;1.40;1.30;;;22.00;99.90;;;;;;5049289;28;20480;-45
2022/10/21 05:40:50;;;;;;;1.70;1.60;;;22.00;99.90;;;;;;5047800;28;20473;-43
2022/10/21 05:43:17;;;;;;;1.40;1.30;;;22.00;99.90;;;;;;5049882;28;20854;-44
2022/10/21 05:45:44;;;;;;;1.40;1.30;;;22.00;99.90;;;;;;5043541;28;20442;-42
2022/10/21 05:48:10;;;;;;;1.33;1.20;;;22.00;99.90;;;;;;5035683;28;20457;-42
2022/10/21 05:50:37;;;;;;;1.30;1.20;;;22.00;99.90;;;;;;5045344;28;20461;-43
2022/10/21 05:53:04;;;;;;;1.23;1.10;;;22.00;99.90;;;;;;5042198;28;20453;-42
2022/10/21 05:55:31;;;;;;;1.30;1.20;;;22.00;99.90;;;;;;5045833;28;20457;-42
2022/10/21 05:57:59;;;;;;;1.10;1.00;;;22.10;99.90;;;;;;5043828;28;20457;-42
2022/10/21 06:00:25;;;;;;;1.33;1.20;;;22.10;99.90;;;;;;5051354;28;20449;-43
2022/10/21 06:02:52;;;;;;;1.23;1.10;;;22.10;99.90;;;;;;5038123;28;20453;-41
2022/10/21 06:05:19;;;;;;;1.30;1.20;;;22.20;99.90;;;;;;5046747;28;20457;-43
2022/10/21 06:07:46;;;;;;;1.23;1.13;;;22.20;99.90;;;;;;5045640;28;20453;-42
2022/10/21 06:10:15;;;;;;;1.40;1.30;;;22.20;99.90;;;;;;5042063;28;20464;-43
2022/10/21 06:12:42;;;;;;;5.10;1.50;;;22.20;99.90;;;;;;5045317;28;20952;-43
2022/10/21 06:15:10;;;;;;;1.20;1.10;;;22.20;99.90;;;;;;5036099;28;20449;-42
2022/10/21 06:17:37;;;;;;;1.60;1.40;;;22.20;99.90;;;;;;5035274;28;20480;-45
2022/10/21 06:20:05;;;;;;;1.40;1.10;;;22.20;99.90;;;;;;5049539;28;20473;-45
2022/10/21 06:22:31;;;;;;;1.23;1.10;;;22.20;99.90;;;;;;5046170;28;20993;-44
2022/10/21 06:24:58;;;;;;;1.40;1.27;;;22.20;99.90;;;;;;5047763;28;20473;-44
2022/10/21 06:27:25;;;;;;;1.60;1.50;;;22.20;99.90;;;;;;5050749;28;20446;-42
2022/10/21 06:29:51;;;;;;;1.90;1.50;;;22.20;99.90;;;;;;5044120;28;20462;-43
2022/10/21 06:32:19;;;;;;;1.40;1.30;;;22.20;99.90;;;;;;5042625;28;20833;-43
2022/10/21 06:34:46;;;;;;;1.63;1.53;;;22.20;99.90;;;;;;5034346;28;20466;-43
2022/10/21 06:37:13;;;;;;;1.20;1.10;;;22.20;99.90;;;;;;5047767;28;20449;-42
2022/10/21 06:39:39;;;;;;;1.20;1.10;;;22.20;99.90;;;;;;5042830;28;20845;-42
2022/10/21 06:42:06;;;;;;;1.20;1.10;;;22.20;99.90;;;;;;5039576;28;20485;-43
2022/10/21 06:44:33;;;;;;;1.73;1.63;;;22.10;99.90;;;;;;5047240;28;20458;-45
2022/10/21 06:46:59;;;;;;;1.43;1.30;;;22.10;99.90;;;;;;5044665;28;20443;-43
2022/10/21 06:49:27;;;;;;;1.50;1.40;;;22.10;99.90;;;;;;5044476;28;20461;-43
2022/10/21 06:51:54;;;;;;;1.20;1.10;;;22.10;99.90;;;;;;5041944;28;20468;-43
2022/10/21 06:54:21;;;;;;;1.20;1.10;;;22.10;99.90;;;;;;5043909;28;20472;-43
2022/10/21 06:56:47;;;;;;;1.50;1.30;;;22.10;99.90;;;;;;5054534;28;20560;-43
2022/10/21 06:59:14;;;;;;;2.20;1.47;;;22.10;99.90;;;;;;5043721;28;20476;-43
2022/10/21 07:01:41;;;;;;;1.30;1.20;;;22.10;99.90;;;;;;5044133;28;20469;-43
2022/10/21 07:04:07;;;;;;;1.37;1.20;;;22.10;99.90;;;;;;5042809;28;20453;-43
2022/10/21 07:06:36;;;;;;;1.27;1.17;;;22.10;99.90;;;;;;5046417;28;20461;-41
2022/10/21 07:09:04;;;;;;;1.43;1.27;;;22.10;99.90;;;;;;5039214;28;20876;-42
2022/10/21 07:11:31;;;;;;;1.43;1.23;;;22.10;99.90;;;;;;5053153;28;21042;-43
2022/10/21 07:14:00;;;;;;;1.60;1.23;;;22.10;99.90;;;;;;5054570;28;20441;-43
2022/10/21 07:16:28;;;;;;;1.20;1.00;;;22.10;99.90;;;;;;5036024;28;20474;-43
2022/10/21 07:18:56;;;;;;;1.43;1.10;;;22.10;99.90;;;;;;5049421;28;20459;-43
2022/10/21 07:21:25;;;;;;;1.20;1.10;;;22.10;99.90;;;;;;5045314;28;20802;-43
2022/10/21 07:23:54;;;;;;;1.13;1.00;;;22.10;99.90;;;;;;5050704;28;20599;-43
2022/10/21 07:26:23;;;;;;;1.20;1.10;;;22.10;99.90;;;;;;5053393;28;20529;-43
2022/10/21 07:28:51;;;;;;;1.60;1.50;;;22.10;99.90;;;;;;5048760;28;20446;-43
2022/10/21 07:31:19;;;;;;;1.30;1.20;;;22.10;99.90;;;;;;5037830;28;20457;-43
2022/10/21 07:33:46;;;;;;;1.50;1.30;;;22.10;99.90;;;;;;5044964;28;20503;-42
2022/10/21 07:36:16;;;;;;;1.47;1.27;;;22.20;99.90;;;;;;5053295;28;20492;-43
2022/10/21 07:38:45;;;;;;;1.63;1.13;;;22.20;99.90;;;;;;5050499;28;20457;-43
2022/10/21 07:41:15;;;;;;;1.10;1.00;;;22.20;99.90;;;;;;5048093;28;20484;-43
2022/10/21 07:43:42;;;;;;;1.30;1.20;;;22.20;99.90;;;;;;5044008;28;20464;-42
2022/10/21 07:46:09;;;;;;;1.30;1.10;;;22.20;99.90;;;;;;5036698;28;20453;-43
2022/10/21 07:48:35;;;;;;;1.30;1.20;;;22.20;99.90;;;;;;5048187;28;20450;-43
2022/10/21 07:51:03;;;;;;;1.50;1.20;;;22.20;99.90;;;;;;5047632;28;20461;-43
2022/10/21 07:53:30;;;;;;;3.07;1.30;;;22.30;99.90;;;;;;5051689;28;20541;-42
2022/10/21 07:56:05;;;;;;;1.50;1.40;;;22.20;99.90;;;;;;5046790;28;20462;-43
2022/10/21 07:58:33;;;;;;;1.23;1.10;;;22.30;99.90;;;;;;5052357;28;20441;-44
2022/10/21 08:01:01;;;;;;;1.50;1.40;;;22.30;99.90;;;;;;5043473;28;20454;-42
2022/10/21 08:03:28;;;;;;;2.07;1.37;;;22.30;99.90;;;;;;5048336;28;20454;-43
2022/10/21 08:05:55;;;;;;;1.43;1.27;;;22.30;99.90;;;;;;5046010;28;20825;-43
2022/10/21 08:08:23;;;;;;;1.23;1.10;;;22.30;99.90;;;;;;5044172;28;20453;-43
2022/10/21 08:10:51;;;;;;;1.33;1.23;;;22.30;99.90;;;;;;5047451;28;20515;-43
2022/10/21 08:13:18;;;;;;;1.77;1.30;;;22.40;99.90;;;;;;5048176;28;20956;-42
2022/10/21 08:15:48;;;;;;;7.87;1.33;;;22.40;99.90;;;;;;5061586;28;20445;-42
2022/10/21 08:18:15;;;;;;;5.43;1.50;;;22.40;99.90;;;;;;5048060;28;20452;-42
2022/10/21 08:20:44;;;;;;;2.57;1.40;;;22.40;99.90;;;;;;5041909;28;20461;-45
2022/10/21 08:23:12;;;;;;;1.87;1.57;;;22.40;99.90;;;;;;5048828;28;20481;-43
2022/10/21 08:25:39;;;;;;;3.50;1.50;;;22.40;99.90;;;;;;5040977;28;20458;-42
2022/10/21 08:28:06;;;;;;;3.63;2.00;;;22.50;99.90;;;;;;5047733;28;20437;-42
2022/10/21 08:30:33;;;;;;;7.20;1.80;;;22.50;99.90;;;;;;5042847;28;20468;-44
2022/10/21 08:33:01;;;;;;;2.00;1.80;;;22.50;99.90;;;;;;5039932;28;20956;-47
2022/10/21 08:35:28;;;;;;;2.63;1.50;;;22.50;99.90;;;;;;5044517;28;20974;-48
2022/10/21 08:37:55;;;;;;;2.07;1.30;;;22.50;99.90;;;;;;5046018;28;20810;-48
2022/10/21 08:40:22;;;;;;;1.97;1.53;;;22.50;99.90;;;;;;5034467;28;226550;-47
2022/10/21 08:42:49;;;;;;;4.67;2.00;;;22.50;99.90;;;;;;5043390;28;20486;-45
2022/10/21 08:45:26;;;;;;;4.83;1.50;;;22.50;99.90;;;;;;5042442;28;20442;-45
2022/10/21 08:47:56;;;;;;;3.93;1.27;;;22.50;99.90;;;;;;5037819;28;20458;-48
2022/10/21 08:50:28;;;;;;;3.70;1.50;;;22.50;99.90;;;;;;5044026;28;20824;-45
2022/10/21 08:52:59;;;;;;;4.13;2.03;;;22.60;99.90;;;;;;5049671;28;20465;-47
2022/10/21 08:55:32;;;;;;;2.40;1.50;;;22.60;99.90;;;;;;5045755;28;20504;-48
2022/10/21 08:58:00;;;;;;;1.80;1.70;;;22.60;99.90;;;;;;5052146;28;20560;-45
2022/10/21 09:00:33;;;;;;;3.07;1.53;;;22.60;99.90;;;;;;5043049;28;20461;-45
2022/10/21 09:03:09;;;;;;;2.53;1.70;;;22.50;99.90;;;;;;5037828;28;20473;-45
2022/10/21 09:05:49;;;;;;;1.50;1.33;;;22.50;99.90;;;;;;5052600;28;20452;-50
2022/10/21 09:08:24;;;;;;;1.47;1.10;;;22.40;99.90;;;;;;5052280;28;20441;-49
2022/10/21 09:11:01;;;;;;;1.80;1.50;;;22.40;99.90;;;;;;5048090;28;20514;-49
2022/10/21 09:13:42;;;;;;;2.13;1.93;;;22.40;99.90;;;;;;5052526;28;20445;-47
2022/10/21 09:16:14;;;;;;;3.93;1.83;;;22.30;99.90;;;;;;5050591;28;20477;-50
2022/10/21 09:18:50;;;;;;;3.10;1.80;;;22.30;99.90;;;;;;5048315;28;20453;-50
2022/10/21 09:21:27;;;;;;;7.17;1.63;;;22.30;99.90;;;;;;5048591;28;20511;-47
2022/10/21 09:24:00;;;;;;;1.37;1.27;;;22.20;99.90;;;;;;5051094;28;20440;-51
2022/10/21 09:26:36;;;;;;;2.23;1.73;;;22.30;99.90;;;;;;5051905;28;20924;-48
2022/10/21 09:29:15;;;;;;;3.10;1.60;;;22.30;99.90;;;;;;5051046;28;20955;-50
2022/10/21 09:31:43;;;;;;;1.40;1.30;;;22.40;99.90;;;;;;5043550;28;20452;-48
2022/10/21 09:34:19;;;;;;;1.67;1.57;;;22.50;99.90;;;;;;5040086;28;20461;-45
2022/10/21 09:36:49;;;;;;;1.87;1.40;;;22.60;99.90;;;;;;5036585;28;20507;-46
2022/10/21 09:39:20;;;;;;;1.97;1.80;;;22.60;99.90;;;;;;5048917;28;20469;-49
2022/10/21 09:41:52;;;;;;;2.37;1.80;;;22.60;99.90;;;;;;5037224;28;20524;-45
2022/10/21 09:44:21;;;;;;;3.43;1.80;;;22.70;99.90;;;;;;5032861;28;20458;-49
2022/10/21 09:46:50;;;;;;;1.80;1.70;;;22.70;99.90;;;;;;5042272;28;21116;-42
2022/10/21 09:49:24;;;;;;;2.20;1.50;;;22.80;99.90;;;;;;5039379;28;20469;-42
2022/10/21 09:51:52;;;;;;;3.37;1.53;;;22.80;99.90;;;;;;5037092;28;20465;-44
2022/10/21 09:54:22;;;;;;;3.87;1.87;;;22.70;99.90;;;;;;5031226;28;20467;-44
2022/10/21 09:56:55;;;;;;;3.20;2.00;;;22.60;99.90;;;;;;5049064;28;20460;-42
2022/10/21 09:59:24;;;;;;;1.77;1.67;;;22.50;99.90;;;;;;5041650;28;20453;-42
2022/10/21 10:01:51;;;;;;;2.43;1.40;;;22.50;99.90;;;;;;5039862;28;20530;-42
2022/10/21 10:04:25;;;;;;;2.20;2.03;;;22.50;99.90;;;;;;5045469;28;20839;-43
2022/10/21 10:06:53;;;;;;;2.40;1.67;;;22.60;99.90;;;;;;5043738;28;20453;-44
2022/10/21 10:09:26;;;;;;;4.50;2.03;;;22.60;99.90;;;;;;5044464;28;20457;-44
2022/10/21 10:11:55;;;;;;;4.67;1.60;;;22.60;99.90;;;;;;5041554;28;20486;-44
2022/10/21 10:14:29;;;;;;;3.73;1.67;;;22.50;99.90;;;;;;5046282;28;20833;-44
2022/10/21 10:16:56;;;;;;;2.30;1.60;;;22.60;99.90;;;;;;5041364;28;20461;-43
2022/10/21 10:19:26;;;;;;;6.80;1.80;;;22.50;99.90;;;;;;5045790;28;20462;-42
2022/10/21 10:22:13;;;;;;;4.13;2.10;;;22.60;99.90;;;;;;5047478;28;20488;-43
2022/10/21 10:24:40;;;;;;;3.20;1.90;;;22.60;99.90;;;;;;5036760;28;20465;-44
2022/10/21 10:27:13;;;;;;;5.37;1.90;;;22.60;99.90;;;;;;5036270;28;20960;-42
2022/10/21 10:29:42;;;;;;;5.40;1.77;;;22.60;99.90;;;;;;5039798;28;20442;-42
2022/10/21 10:32:15;;;;;;;4.43;1.73;;;22.60;99.90;;;;;;5035721;28;20488;-42
2022/10/21 10:34:52;;;;;;;3.23;1.43;;;22.60;99.90;;;;;;5044978;28;20438;-42
2022/10/21 10:37:23;;;;;;;6.87;1.70;;;22.60;99.90;;;;;;5046372;28;20541;-42
2022/10/21 10:39:52;;;;;;;2.27;1.70;;;22.60;99.90;;;;;;5044847;28;20460;-43
2022/10/21 10:42:21;;;;;;;2.10;1.87;;;22.60;99.90;;;;;;5045384;28;20913;-44
2022/10/21 10:44:52;;;;;;;6.70;2.83;;;22.60;99.90;;;;;;5039530;28;20466;-38
2022/10/21 10:47:25;;;;;;;7.30;4.43;;;22.40;99.90;;;;;;5043579;28;20867;-39
2022/10/21 10:49:52;;;;;;;9.80;4.05;;;19.60;99.90;;;;;;5041958;28;20469;-39
2022/10/21 10:52:23;;;;;;;8.00;3.50;;;18.50;99.90;;;;;;5032193;28;20728;-36
2022/10/21 10:55:17;;;;;;;6.28;4.75;;;18.00;99.90;;;;;;5041251;28;20264;-36
2022/10/21 10:57:49;;;;;;;4.75;4.07;;;18.00;99.90;;;;;;5023205;28;20650;-37
2022/10/21 11:00:19;;;;;;;6.78;4.70;;;18.10;99.90;;;;;;5042016;28;20464;-38
2022/10/21 11:02:55;;;;;;;6.80;3.42;;;18.50;99.90;;;;;;5043476;28;20225;-37
2022/10/21 11:05:27;;;;;;;7.20;3.00;;;18.50;99.90;;;;;;5037250;28;20299;-41
2022/10/21 11:07:59;;;;;;;7.32;3.35;;;19.10;99.90;;;;;;5038049;28;20188;-45
2022/10/21 11:10:45;;;;;;;6.80;3.95;;;20.30;99.90;;;;;;5045795;28;20196;-45
2022/10/21 11:13:15;;;;;;;5.60;2.70;;;21.00;99.90;;;;;;5042342;28;20666;-46
2022/10/21 11:16:04;;;;;;;4.63;2.80;;;21.30;99.90;;;;;;5042477;28;20470;-44
2022/10/21 11:18:36;;;;;;;4.53;2.87;;;21.40;99.90;;;;;;5044396;28;20596;-48
2022/10/21 11:21:10;;;;;;;6.90;2.43;;;21.60;99.90;;;;;;5043493;28;20875;-47
2022/10/21 11:23:59;;;;;;;3.50;2.40;;;21.60;99.90;;;;;;5040934;28;20477;-47
2022/10/21 11:26:32;;;;;;;7.00;2.70;;;21.70;99.90;;;;;;5040207;28;20820;-47
2022/10/21 11:29:11;;;;;;;6.37;2.20;;;21.80;99.90;;;;;;5039372;28;20816;-43
2022/10/21 11:31:45;;;;;;;6.00;2.50;;;21.80;99.90;;;;;;5035465;28;20450;-43
2022/10/21 11:34:18;;;;;;;2.87;2.23;;;21.80;99.90;;;;;;5041705;28;20461;-41
2022/10/21 11:36:55;;;;;;;2.90;2.60;;;21.90;99.90;;;;;;5053046;28;20456;-42
2022/10/21 11:39:37;;;;;;;5.73;2.90;;;21.90;99.90;;;;;;5048365;28;20461;-43
2022/10/21 11:42:17;;;;;;;3.80;2.30;;;21.90;99.90;;;;;;5049497;28;20488;-43
2022/10/21 11:44:59;;;;;;;2.60;2.20;;;21.90;99.90;;;;;;5040082;28;20465;-43
2022/10/21 11:47:31;;;;;;;2.70;2.30;;;22.00;99.90;;;;;;5040892;28;20464;-42
2022/10/21 11:50:11;;;;;;;2.27;1.77;;;22.00;99.90;;;;;;5049210;28;20995;-42
2022/10/21 11:52:50;;;;;;;3.70;2.10;;;22.00;99.90;;;;;;5043810;28;20465;-42
2022/10/21 11:55:38;;;;;;;3.10;2.27;;;22.00;99.90;;;;;;5048387;28;20457;-41
2022/10/21 11:58:22;;;;;;;2.17;1.93;;;22.00;99.90;;;;;;5042027;28;20454;-43
2022/10/21 12:00:58;;;;;;;2.00;1.80;;;22.00;99.90;;;;;;5034300;28;20516;-42
2022/10/21 12:03:43;;;;;;;3.63;2.03;;;22.10;99.90;;;;;;5041988;28;20476;-42
2022/10/21 12:06:20;;;;;;;2.43;2.23;;;22.10;99.90;;;;;;5049151;28;20457;-42
2022/10/21 12:08:53;;;;;;;2.40;1.80;;;22.10;99.90;;;;;;5046612;28;20484;-43
2022/10/21 12:11:25;;;;;;;4.00;1.97;;;22.10;99.90;;;;;;5047625;28;20463;-43
2022/10/21 12:13:55;;;;;;;3.47;2.30;;;22.10;99.90;;;;;;5039731;28;20465;-43
2022/10/21 12:16:26;;;;;;;2.93;2.00;;;22.10;99.90;;;;;;5042895;28;20539;-43
2022/10/21 12:18:56;;;;;;;2.13;1.60;;;22.10;99.90;;;;;;5041336;28;20458;-43
2022/10/21 12:21:25;;;;;;;2.23;1.67;;;22.20;99.90;;;;;;5048673;28;20462;-42
2022/10/21 12:24:00;;;;;;;6.00;1.50;;;22.20;99.90;;;;;;5049182;28;20485;-43
2022/10/21 12:26:35;;;;;;;2.63;1.60;;;22.20;99.90;;;;;;5051996;28;20457;-40
2022/10/21 12:29:08;;;;;;;1.73;1.63;;;22.20;99.90;;;;;;5043547;28;20477;-41
2022/10/21 12:31:44;;;;;;;1.90;1.60;;;22.20;99.90;;;;;;5045125;28;20587;-42
2022/10/21 12:34:12;;;;;;;2.90;2.60;;;22.20;99.90;;;;;;5046970;28;20513;-42
2022/10/21 12:36:44;;;;;;;2.30;2.10;;;22.30;99.90;;;;;;5046627;28;20446;-41
2022/10/21 12:39:17;;;;;;;1.70;1.60;;;22.30;99.90;;;;;;5041967;28;20952;-39
2022/10/21 12:41:46;;;;;;;2.00;1.80;;;22.30;99.90;;;;;;5045079;28;20458;-43
2022/10/21 12:44:31;;;;;;;2.97;1.93;;;22.30;99.90;;;;;;5039395;28;20870;-43
2022/10/21 12:47:03;;;;;;;1.67;1.57;;;22.30;99.90;;;;;;5031927;28;20454;-43
2022/10/21 12:49:32;;;;;;;1.60;1.30;;;22.30;99.90;;;;;;5041789;28;20519;-42
2022/10/21 12:52:07;;;;;;;1.70;1.60;;;22.30;99.90;;;;;;5042746;28;20447;-43
2022/10/21 12:54:42;;;;;;;1.80;1.63;;;22.30;99.90;;;;;;5039296;28;20871;-43
2022/10/21 12:57:20;;;;;;;2.00;1.30;;;22.30;99.90;;;;;;5044626;28;20549;-41
2022/10/21 12:59:47;;;;;;;4.03;2.33;;;22.30;99.90;;;;;;5038890;28;20864;-43
2022/10/21 13:02:27;;;;;;;1.63;1.53;;;22.40;99.90;;;;;;5041894;28;20464;-43